Time;durP1;ratioP1;P1;durP2;ratioP2;P2;SDS_P1;SDS_P2;PMS_P1;PMS_P2;Temp;Humidity;BMP_temperature;BMP_pressure;BME280_temperature;BME280_humidity;BME280_pressure;Samples;Min_cycle;Max_cycle;Signal;HPM_P1;HPM_P2
2022/08/02 00:00:38;;;;;;;;;6.80;5.20;;;;;16.62;72.09;100166.50;5137364;27;8910;-67
2022/08/02 00:03:06;;;;;;;;;10.40;9.60;;;;;16.59;71.60;100163.28;5120070;27;8826;-62
2022/08/02 00:05:34;;;;;;;;;9.00;6.50;;;;;16.56;72.34;100158.22;5137406;27;8842;-61
2022/08/02 00:08:01;;;;;;;;;6.00;6.00;;;;;16.54;71.98;100150.28;5137265;27;8956;-62
2022/08/02 00:10:29;;;;;;;;;6.00;5.60;;;;;16.53;71.59;100158.50;5137504;27;8960;-61
2022/08/02 00:12:57;;;;;;;;;7.00;7.00;;;;;16.51;71.99;100155.13;5137554;27;8838;-61
2022/08/02 00:15:25;;;;;;;;;6.80;6.80;;;;;16.49;71.92;100152.59;5136645;27;9022;-61
2022/08/02 00:17:53;;;;;;;;;4.50;4.00;;;;;16.46;72.26;100146.66;5136738;27;8848;-62
2022/08/02 00:20:20;;;;;;;;;7.00;7.00;;;;;16.41;71.70;100160.56;5136416;27;8837;-61
2022/08/02 00:22:48;;;;;;;;;7.00;7.00;;;;;16.35;71.97;100149.56;5136846;27;8929;-61
2022/08/02 00:25:16;;;;;;;;;6.50;6.50;;;;;16.29;72.22;100159.09;5136030;27;8840;-61
2022/08/02 00:27:44;;;;;;;;;9.25;9.25;;;;;16.26;72.50;100162.06;5134590;27;9026;-61
2022/08/02 00:30:12;;;;;;;;;11.00;8.50;;;;;16.23;72.50;100158.03;5134054;27;8828;-62
2022/08/02 00:32:39;;;;;;;;;6.25;6.00;;;;;16.19;72.48;100161.00;5133776;27;8882;-61
2022/08/02 00:35:07;;;;;;;;;8.50;6.50;;;;;16.17;72.40;100170.22;5134280;27;9004;-61
2022/08/02 00:37:35;;;;;;;;;10.00;9.00;;;;;16.16;72.27;100168.50;5133752;27;8822;-61
2022/08/02 00:40:03;;;;;;;;;9.75;9.00;;;;;16.16;72.40;100170.38;5134314;27;8833;-62
2022/08/02 00:42:31;;;;;;;;;10.75;9.00;;;;;16.15;72.36;100184.81;5135774;27;8854;-61
2022/08/02 00:44:58;;;;;;;;;8.00;7.50;;;;;16.15;72.43;100176.75;5136799;27;8964;-61
2022/08/02 00:47:26;;;;;;;;;9.75;7.50;;;;;16.14;72.06;100175.06;5136823;27;8853;-62
2022/08/02 00:49:55;;;;;;;;;9.00;9.00;;;;;16.12;72.22;100167.16;5136703;27;8825;-61
2022/08/02 00:52:22;;;;;;;;;9.00;7.50;;;;;16.09;72.69;100167.44;5136708;27;8841;-60
2022/08/02 00:54:50;;;;;;;;;3.75;3.75;;;;;16.08;72.24;100167.59;5136710;27;8838;-60
2022/08/02 00:57:18;;;;;;;;;8.00;8.00;;;;;16.06;72.45;100164.19;5136622;27;9619;-61
2022/08/02 00:59:46;;;;;;;;;9.25;6.50;;;;;16.04;72.48;100156.31;5136756;27;8834;-62
2022/08/02 01:02:14;;;;;;;;;5.00;3.50;;;;;16.03;72.84;100153.75;5136780;27;8840;-61
2022/08/02 01:04:42;;;;;;;;;10.00;10.00;;;;;16.01;72.65;100150.38;5136612;27;8825;-61
2022/08/02 01:07:10;;;;;;;;;8.00;8.00;;;;;16.00;72.48;100154.91;5136428;27;8853;-61
2022/08/02 01:09:40;;;;;;;;;9.50;9.25;;;;;15.98;72.82;100146.16;5136715;27;8834;-62
2022/08/02 01:12:08;;;;;;;;;9.50;9.00;;;;;15.98;72.30;100156.91;5136104;27;8861;-61
2022/08/02 01:14:36;;;;;;;;;9.75;9.25;;;;;15.96;72.35;100158.91;5136328;27;8963;-60
2022/08/02 01:17:04;;;;;;;;;9.50;9.50;;;;;15.94;72.66;100162.72;5136316;27;8884;-62
2022/08/02 01:19:32;;;;;;;;;6.50;6.50;;;;;15.92;72.99;100164.72;5136274;27;8913;-61
2022/08/02 01:22:01;;;;;;;;;7.00;7.00;;;;;15.90;72.71;100169.38;5136428;27;8826;-61
2022/08/02 01:24:29;;;;;;;;;8.50;7.00;;;;;15.90;72.38;100169.38;5136381;27;8814;-60
2022/08/02 01:26:57;;;;;;;;;9.00;8.75;;;;;15.88;72.55;100169.56;5136119;27;8846;-60
2022/08/02 01:29:24;;;;;;;;;5.50;4.50;;;;;15.87;72.77;100170.56;5135939;27;8973;-61
2022/08/02 01:31:52;;;;;;;;;8.50;7.00;;;;;15.87;72.46;100164.31;5136149;27;8810;-61
2022/08/02 01:34:20;;;;;;;;;8.50;7.00;;;;;15.87;72.77;100164.31;5140102;27;9495;-62
2022/08/02 01:36:48;;;;;;;;;6.75;5.75;;;;;15.87;72.47;100158.97;5139272;27;8833;-61
2022/08/02 01:39:15;;;;;;;;;9.00;8.50;;;;;15.85;72.70;100155.59;5139233;27;8860;-61
2022/08/02 01:41:58;;;;;;;;;6.75;6.00;;;;;15.81;73.17;100156.88;5139953;27;8853;-60
2022/08/02 01:44:26;;;;;;;;;8.00;7.50;;;;;15.76;72.54;100157.31;5140242;27;8825;-61
2022/08/02 01:46:54;;;;;;;;;8.00;7.50;;;;;15.74;72.97;100153.09;5140353;27;8832;-61
2022/08/02 01:49:22;;;;;;;;;8.00;6.25;;;;;15.71;72.69;100151.53;5139950;27;9495;-61
2022/08/02 01:54:35;;;;;;;;;8.50;8.00;;;;;15.68;72.96;100159.03;5139706;27;8856;-61
2022/08/02 01:57:03;;;;;;;;;6.75;6.75;;;;;15.66;73.10;100156.53;5139098;27;8838;-60
2022/08/02 01:59:32;;;;;;;;;5.50;4.50;;;;;15.64;73.13;100155.81;5139183;27;8834;-61
2022/08/02 02:01:59;;;;;;;;;6.50;5.25;;;;;15.63;73.40;100147.94;5139617;27;8850;-61
2022/08/02 02:04:27;;;;;;;;;5.50;5.50;;;;;15.62;73.05;100144.38;5139794;27;8948;-61
2022/08/02 02:06:55;;;;;;;;;7.00;7.00;;;;;15.68;72.58;100140.25;5138732;27;8852;-61
2022/08/02 02:09:23;;;;;;;;;7.75;7.50;;;;;15.73;73.09;100137.97;5138366;27;8840;-61
2022/08/02 02:11:51;;;;;;;;;3.25;3.00;;;;;15.74;72.66;100148.56;5138689;27;8866;-61
2022/08/02 02:14:38;;;;;;;;;6.00;6.00;;;;;15.72;72.72;100139.81;5138298;27;8829;-61
2022/08/02 02:17:06;;;;;;;;;3.75;3.00;;;;;15.71;72.48;100140.78;5137979;27;8837;-61
2022/08/02 02:19:34;;;;;;;;;8.50;8.50;;;;;15.69;72.98;100140.09;5137710;27;8845;-60
2022/08/02 02:22:02;;;;;;;;;7.00;7.00;;;;;15.69;72.40;100140.09;5138552;27;8833;-61
2022/08/02 02:24:29;;;;;;;;;6.25;6.25;;;;;15.67;72.87;100135.88;5139886;27;8810;-61
2022/08/02 02:26:58;;;;;;;;;8.50;7.00;;;;;15.63;72.73;100134.50;5139599;27;8920;-63
2022/08/02 02:29:26;;;;;;;;;6.25;6.25;;;;;15.61;72.76;100137.31;5139341;27;8865;-63
2022/08/02 02:31:54;;;;;;;;;6.00;5.50;;;;;15.59;73.07;100130.41;5139529;27;8956;-63
2022/08/02 02:34:22;;;;;;;;;9.00;8.00;;;;;15.58;73.25;100131.41;5138797;27;8968;-61
2022/08/02 02:36:49;;;;;;;;;9.50;9.00;;;;;15.58;73.21;100128.72;5139216;27;8821;-62
2022/08/02 02:39:17;;;;;;;;;5.75;5.00;;;;;15.55;73.08;100127.19;5139327;27;8836;-61
2022/08/02 02:41:45;;;;;;;;;4.50;4.50;;;;;15.51;72.98;100124.94;5139264;27;8833;-61
2022/08/02 02:44:13;;;;;;;;;6.00;3.50;;;;;15.46;73.76;100119.19;5138767;27;8810;-63
2022/08/02 02:46:40;;;;;;;;;3.75;3.75;;;;;15.44;73.25;100118.47;5139065;27;8933;-61
2022/08/02 02:49:08;;;;;;;;;6.00;6.00;;;;;15.41;73.36;100114.25;5138916;27;8821;-61
2022/08/02 02:51:36;;;;;;;;;3.25;3.25;;;;;15.39;73.18;100115.41;5139122;27;8837;-62
2022/08/02 02:54:04;;;;;;;;;7.50;7.25;;;;;15.35;73.05;100120.22;5138908;27;8830;-61
2022/08/02 02:56:52;;;;;;;;;9.00;7.00;;;;;15.32;72.96;100122.34;5138570;27;8848;-62
2022/08/02 02:59:20;;;;;;;;;5.00;4.50;;;;;15.29;73.72;100126.16;5138193;27;8844;-61
2022/08/02 03:01:47;;;;;;;;;9.00;6.50;;;;;15.28;73.54;100112.88;5138750;27;8972;-61
2022/08/02 03:04:24;;;;;;;;;8.00;8.00;;;;;15.27;72.96;100108.50;5138542;27;8813;-61
2022/08/02 03:06:52;;;;;;;;;8.00;8.00;;;;;15.26;73.28;100112.19;5138884;27;8821;-61
2022/08/02 03:09:19;;;;;;;;;8.00;6.00;;;;;15.24;73.50;100108.81;5138613;27;8834;-60
2022/08/02 03:11:47;;;;;;;;;7.00;6.00;;;;;15.23;73.79;100109.78;5138761;27;8861;-61
2022/08/02 03:14:15;;;;;;;;;10.00;9.25;;;;;15.24;73.21;100106.13;5138545;27;8944;-61
2022/08/02 03:16:42;;;;;;;;;9.75;8.00;;;;;15.24;73.20;100104.25;5138491;27;8836;-63
2022/08/02 03:19:10;;;;;;;;;4.00;3.25;;;;;15.26;73.22;100107.63;5138626;27;8959;-61
2022/08/02 03:21:38;;;;;;;;;6.25;6.25;;;;;15.28;73.65;100102.13;5138311;27;8830;-63
2022/08/02 03:24:06;;;;;;;;;8.50;6.75;;;;;15.31;73.01;100108.09;5138159;27;8863;-61
2022/08/02 03:26:34;;;;;;;;;4.00;4.00;;;;;15.32;72.88;100117.00;5137901;27;8830;-62
2022/08/02 03:29:02;;;;;;;;;6.00;4.00;;;;;15.27;73.31;100121.91;5138407;27;8936;-62
2022/08/02 03:31:37;;;;;;;;;7.00;7.00;;;;;15.21;73.74;100114.44;5137802;27;8854;-61
2022/08/02 03:34:05;;;;;;;;;6.25;5.50;;;;;15.16;73.36;100117.56;5138117;27;8943;-61
2022/08/02 03:36:32;;;;;;;;;6.00;5.50;;;;;15.11;73.91;100116.31;5138081;27;8944;-62
2022/08/02 03:39:00;;;;;;;;;5.00;4.00;;;;;15.07;73.73;100118.44;5137896;27;8805;-61
2022/08/02 03:41:28;;;;;;;;;6.00;6.00;;;;;15.05;73.68;100122.28;5137035;27;8846;-63
2022/08/02 03:43:56;;;;;;;;;6.00;5.00;;;;;15.06;73.57;100115.91;5137492;27;8826;-61
2022/08/02 03:46:23;;;;;;;;;9.25;5.50;;;;;15.07;73.56;100118.44;5137610;27;8991;-62
2022/08/02 03:48:51;;;;;;;;;9.00;7.00;;;;;15.08;73.25;100113.91;5136679;27;9183;-61
2022/08/02 03:51:19;;;;;;;;;7.00;7.00;;;;;15.08;73.38;100111.22;5136533;27;8817;-61
2022/08/02 03:53:47;;;;;;;;;9.25;9.25;;;;;15.09;73.45;100097.69;5136513;27;8825;-61
2022/08/02 03:56:14;;;;;;;;;6.25;6.00;;;;;15.09;73.29;100100.38;5136585;27;8833;-61
2022/08/02 03:58:42;;;;;;;;;6.75;6.75;;;;;15.08;73.61;100101.38;5137648;27;8837;-62
2022/08/02 04:01:15;;;;;;;;;6.75;6.00;;;;;15.06;73.46;100097.13;5137512;27;8841;-61
2022/08/02 04:03:43;;;;;;;;;9.75;6.75;;;;;15.08;74.08;100097.81;5136739;27;9498;-61
2022/08/02 04:06:11;;;;;;;;;8.50;6.25;;;;;15.05;73.56;100098.13;5137213;27;8822;-61
2022/08/02 04:08:42;;;;;;;;;6.00;4.00;;;;;14.99;74.09;100096.88;5137417;27;8876;-61
2022/08/02 04:13:54;;;;;;;;;4.00;4.00;;;;;14.88;73.88;100101.56;5136751;27;8983;-63
2022/08/02 04:16:23;;;;;;;;;6.50;6.00;;;;;14.85;73.74;100104.53;5136123;27;9495;-62
2022/08/02 04:18:51;;;;;;;;;6.50;4.00;;;;;14.86;73.97;100111.63;5135302;27;8825;-61
2022/08/02 04:21:19;;;;;;;;;7.00;7.00;;;;;14.85;73.91;100113.44;5134385;27;8946;-61
2022/08/02 04:23:46;;;;;;;;;6.50;6.50;;;;;14.86;74.13;100112.44;5136426;27;8930;-61
2022/08/02 04:26:15;;;;;;;;;6.00;5.00;;;;;14.88;73.80;100118.50;5136726;27;8826;-60
2022/08/02 04:28:43;;;;;;;;;10.75;9.50;;;;;14.92;73.78;100119.06;5137003;27;8964;-61
2022/08/02 04:31:11;;;;;;;;;7.75;7.75;;;;;14.94;73.32;100115.25;5136738;27;8967;-61
2022/08/02 04:33:38;;;;;;;;;7.50;7.50;;;;;15.00;73.64;100116.50;5136488;27;8822;-60
2022/08/02 04:36:06;;;;;;;;;7.00;6.50;;;;;15.06;73.32;100126.63;5135858;27;8833;-61
2022/08/02 04:38:34;;;;;;;;;10.00;8.50;;;;;15.10;73.24;100123.50;5136442;27;8818;-61
2022/08/02 04:41:02;;;;;;;;;6.00;6.00;;;;;15.15;73.15;100129.31;5136948;27;8996;-61
2022/08/02 04:43:30;;;;;;;;;9.25;9.25;;;;;15.21;73.39;100122.50;5136151;27;8826;-61
2022/08/02 04:45:57;;;;;;;;;8.00;8.00;;;;;15.27;73.01;100128.13;5136179;27;8952;-61
2022/08/02 04:48:26;;;;;;;;;6.25;6.00;;;;;15.36;72.47;100132.66;5136276;27;8821;-66
2022/08/02 04:50:53;;;;;;;;;8.50;7.00;;;;;15.47;72.23;100137.00;5135948;27;8952;-61
2022/08/02 04:53:21;;;;;;;;;9.25;7.50;;;;;15.58;72.49;100126.03;5136176;27;8860;-60
2022/08/02 04:55:48;;;;;;;;;3.25;3.25;;;;;15.72;72.57;100130.91;5135894;27;8850;-61
2022/08/02 04:58:16;;;;;;;;;7.00;7.00;;;;;15.84;71.95;100132.41;5136237;27;8959;-61
2022/08/02 05:01:04;;;;;;;;;8.00;8.00;;;;;15.97;71.57;100132.88;5135391;27;8852;-61
2022/08/02 05:03:32;;;;;;;;;10.00;10.00;;;;;16.10;71.20;100123.47;5136485;27;8910;-61
2022/08/02 05:06:00;;;;;;;;;8.50;6.75;;;;;16.23;70.88;100119.41;5133043;27;8921;-61
2022/08/02 05:08:28;;;;;;;;;8.00;8.00;;;;;16.38;70.75;100126.97;5135695;27;8830;-60
2022/08/02 05:10:55;;;;;;;;;10.00;9.25;;;;;16.51;70.59;100117.50;5135604;27;8972;-61
2022/08/02 05:13:23;;;;;;;;;12.50;11.50;;;;;16.59;70.28;100121.09;5134671;27;8840;-61
2022/08/02 05:15:52;;;;;;;;;12.50;11.00;;;;;16.63;70.07;100125.16;5134134;27;8963;-61
2022/08/02 05:18:20;;;;;;;;;5.75;5.75;;;;;16.66;69.89;100116.78;5133921;27;8837;-61
2022/08/02 05:20:48;;;;;;;;;8.50;7.00;;;;;16.72;70.07;100129.59;5134661;27;9579;-61
2022/08/02 05:23:15;;;;;;;;;8.20;7.80;;;;;16.79;70.37;100122.59;5134185;27;8964;-61
2022/08/02 05:25:43;;;;;;;;;9.50;9.50;;;;;16.89;70.17;100123.34;5134901;27;9522;-61
2022/08/02 05:28:11;;;;;;;;;11.75;10.50;;;;;16.99;69.59;100132.16;5135455;27;8833;-62
2022/08/02 05:30:39;;;;;;;;;9.00;9.00;;;;;17.07;69.61;100131.34;5135134;27;8825;-61
2022/08/02 05:33:07;;;;;;;;;10.20;9.00;;;;;17.16;69.38;100125.03;5134996;27;8830;-62
2022/08/02 05:35:35;;;;;;;;;11.20;10.00;;;;;17.25;69.12;100122.22;5134595;27;8829;-62
2022/08/02 05:38:03;;;;;;;;;12.20;10.80;;;;;17.37;69.38;100117.41;5134001;27;8846;-62
2022/08/02 05:40:36;;;;;;;;;21.25;19.00;;;;;17.49;68.95;100111.63;5135347;27;8833;-61
2022/08/02 05:43:22;;;;;;;;;19.00;18.50;;;;;17.63;68.74;100124.44;5133449;27;8822;-62
2022/08/02 05:45:52;;;;;;;;;20.25;18.00;;;;;17.75;68.76;100122.34;5135659;27;9202;-63
2022/08/02 05:48:21;;;;;;;;;19.00;16.80;;;;;17.88;67.95;100122.69;5117268;27;8834;-60
2022/08/02 05:50:54;;;;;;;;;22.00;18.60;;;;;17.97;67.97;100122.56;5132981;27;8852;-60
2022/08/02 05:53:21;;;;;;;;;12.80;11.60;;;;;18.06;67.81;100124.25;5132830;27;8848;-61
2022/08/02 05:55:50;;;;;;;;;19.60;15.60;;;;;18.09;68.09;100131.19;5131841;27;8845;-62
2022/08/02 05:58:17;;;;;;;;;14.60;14.60;;;;;18.04;68.38;100128.97;5132641;27;8834;-62
2022/08/02 06:00:45;;;;;;;;;17.60;15.80;;;;;18.01;67.94;100128.47;5131512;27;8841;-61
2022/08/02 06:03:15;;;;;;;;;10.00;10.00;;;;;17.96;68.62;100125.41;5131262;27;8837;-61
2022/08/02 06:05:44;;;;;;;;;12.20;12.00;;;;;17.97;68.75;100130.63;5131253;27;8984;-62
2022/08/02 06:08:13;;;;;;;;;10.80;9.40;;;;;18.03;68.83;100127.28;5131142;27;8829;-61
2022/08/02 06:10:40;;;;;;;;;10.80;10.40;;;;;18.12;68.64;100122.75;5132474;27;8988;-61
2022/08/02 06:13:08;;;;;;;;;14.20;12.80;;;;;18.22;68.70;100115.38;5132668;27;8846;-63
2022/08/02 06:15:40;;;;;;;;;14.60;13.00;;;;;18.36;67.71;100115.56;5132030;27;8853;-61
2022/08/02 06:18:19;;;;;;;;;9.60;9.00;;;;;18.49;67.47;100112.38;5133415;27;8972;-60
2022/08/02 06:20:55;;;;;;;;;14.00;11.00;;;;;18.63;67.60;100115.25;5138025;27;8829;-62
2022/08/02 06:23:22;;;;;;;;;15.20;15.00;;;;;18.79;67.22;100109.00;5138541;27;8976;-62
2022/08/02 06:25:50;;;;;;;;;13.40;10.00;;;;;18.90;66.94;100109.50;5138495;27;8841;-63
2022/08/02 06:28:18;;;;;;;;;16.00;12.80;;;;;19.02;66.66;100113.53;5138370;27;8829;-62
2022/08/02 06:30:46;;;;;;;;;11.40;10.80;;;;;19.16;66.56;100112.84;5138475;27;8822;-61
2022/08/02 06:33:13;;;;;;;;;11.80;11.80;;;;;19.31;65.93;100102.19;5138800;27;8849;-63
2022/08/02 06:35:41;;;;;;;;;13.00;13.00;;;;;19.47;65.83;100110.22;5138341;27;8964;-62
2022/08/02 06:38:10;;;;;;;;;13.20;13.20;;;;;19.60;65.63;100114.09;5137671;27;9524;-62
2022/08/02 06:40:38;;;;;;;;;10.00;8.00;;;;;19.74;65.28;100109.78;5137434;27;8926;-61
2022/08/02 06:43:06;;;;;;;;;12.00;10.00;;;;;19.93;65.21;100106.63;5136821;27;8841;-62
2022/08/02 06:45:34;;;;;;;;;14.20;10.80;;;;;20.09;65.01;100112.00;5137194;27;8846;-61
2022/08/02 06:48:02;;;;;;;;;11.20;11.20;;;;;20.21;64.93;100118.69;5138130;27;8822;-61
2022/08/02 06:50:30;;;;;;;;;11.40;11.40;;;;;20.34;64.57;100108.94;5137971;27;9055;-62
2022/08/02 06:52:57;;;;;;;;;10.60;10.60;;;;;20.48;64.35;100105.47;5138014;27;8834;-62
2022/08/02 06:55:26;;;;;;;;;16.20;14.00;;;;;20.62;64.28;100090.31;5137470;27;8976;-61
2022/08/02 06:57:54;;;;;;;;;13.80;11.20;;;;;20.73;63.89;100088.00;5137198;27;9565;-61
2022/08/02 07:00:22;;;;;;;;;7.20;7.20;;;;;20.83;64.08;100085.88;5137660;27;8833;-61
2022/08/02 07:02:49;;;;;;;;;10.60;10.40;;;;;20.95;63.58;100084.44;5137466;27;8853;-61
2022/08/02 07:05:17;;;;;;;;;11.00;11.00;;;;;21.06;63.30;100092.09;5135754;27;9569;-61
2022/08/02 07:07:46;;;;;;;;;8.00;7.60;;;;;21.19;63.57;100084.19;5135380;27;8833;-61
2022/08/02 07:10:13;;;;;;;;;19.20;13.20;;;;;21.33;63.16;100091.47;5135229;27;8856;-61
2022/08/02 07:12:41;;;;;;;;;12.80;11.20;;;;;21.47;63.10;100087.91;5135270;27;8932;-62
2022/08/02 07:15:11;;;;;;;;;15.20;12.00;;;;;21.60;62.33;100097.06;5135626;27;8838;-62
2022/08/02 07:17:39;;;;;;;;;12.00;12.00;;;;;21.70;62.26;100096.81;5136166;27;8821;-61
2022/08/02 07:20:07;;;;;;;;;10.80;9.80;;;;;21.74;62.32;100087.25;5135472;27;8952;-61
2022/08/02 07:22:34;;;;;;;;;8.40;8.00;;;;;21.82;62.35;100084.44;5135859;27;8996;-61
2022/08/02 07:25:02;;;;;;;;;7.80;7.00;;;;;21.90;62.12;100092.47;5134674;27;8921;-61
2022/08/02 07:27:30;;;;;;;;;7.00;6.00;;;;;21.97;62.46;100079.81;5135583;27;8828;-61
2022/08/02 07:29:58;;;;;;;;;8.20;8.20;;;;;22.05;62.25;100082.41;5134472;27;8830;-62
2022/08/02 07:32:25;;;;;;;;;8.00;7.00;;;;;22.15;62.12;100080.25;5134915;27;9696;-61
2022/08/02 07:34:53;;;;;;;;;10.20;10.00;;;;;22.27;61.58;100075.97;5134650;27;8917;-62
2022/08/02 07:37:22;;;;;;;;;9.20;8.40;;;;;22.37;61.91;100077.34;5135901;27;9509;-61
2022/08/02 07:40:10;;;;;;;;;6.20;5.00;;;;;22.39;61.35;100080.69;5136150;27;8829;-61
2022/08/02 07:42:41;;;;;;;;;6.80;6.00;;;;;22.43;61.89;100078.47;5135214;27;8868;-61
2022/08/02 07:45:09;;;;;;;;;7.00;5.60;;;;;22.53;61.70;100079.00;5132814;27;8930;-62
2022/08/02 07:47:37;;;;;;;;;8.60;8.60;;;;;22.69;60.96;100089.59;5131869;27;9510;-61
2022/08/02 07:50:05;;;;;;;;;5.80;5.00;;;;;22.79;61.16;100080.06;5133967;27;8825;-61
2022/08/02 07:52:33;;;;;;;;;5.40;5.00;;;;;22.90;60.81;100073.22;5135059;27;9572;-61
2022/08/02 07:55:01;;;;;;;;;5.40;5.40;;;;;23.01;60.10;100070.00;5134391;27;8852;-61
2022/08/02 07:57:28;;;;;;;;;4.00;4.00;;;;;23.16;59.84;100074.28;5135073;27;8834;-62
2022/08/02 07:59:57;;;;;;;;;4.00;4.00;;;;;23.26;59.71;100068.50;5136167;27;8952;-61
2022/08/02 08:02:25;;;;;;;;;5.00;4.60;;;;;23.32;59.93;100067.72;5135728;27;8960;-62
2022/08/02 08:04:53;;;;;;;;;3.60;3.20;;;;;23.34;59.67;100068.34;5135869;27;8841;-61
2022/08/02 08:07:21;;;;;;;;;4.80;4.80;;;;;23.42;59.50;100076.34;5135770;27;8845;-61
2022/08/02 08:09:49;;;;;;;;;4.00;4.00;;;;;23.54;58.99;100070.16;5136715;27;8821;-61
2022/08/02 08:12:23;;;;;;;;;4.00;4.00;;;;;23.63;58.35;100062.63;5136023;27;8911;-63
2022/08/02 08:14:50;;;;;;;;;5.40;5.20;;;;;23.69;58.36;100068.13;5136051;27;8938;-60
2022/08/02 08:17:18;;;;;;;;;2.00;2.00;;;;;23.77;58.11;100069.81;5136271;27;9600;-61
2022/08/02 08:19:46;;;;;;;;;2.20;2.20;;;;;23.84;57.47;100062.53;5135178;27;8886;-61
2022/08/02 08:22:18;;;;;;;;;4.80;4.60;;;;;23.96;57.53;100071.81;5135581;27;8849;-62
2022/08/02 08:24:46;;;;;;;;;2.20;2.20;;;;;24.09;57.18;100063.69;5133890;27;8834;-61
2022/08/02 08:27:15;;;;;;;;;2.40;2.00;;;;;24.23;56.82;100063.53;5134126;27;9505;-61
2022/08/02 08:29:43;;;;;;;;;2.00;2.00;;;;;24.37;56.50;100067.94;5135083;27;9479;-61
2022/08/02 08:32:10;;;;;;;;;2.00;2.00;;;;;24.48;56.30;100066.47;5135029;27;8898;-61
2022/08/02 08:34:44;;;;;;;;;2.00;2.00;;;;;24.56;55.36;100058.97;5134560;27;8818;-61
2022/08/02 08:37:12;;;;;;;;;4.60;3.40;;;;;24.67;54.94;100054.78;5135155;27;8841;-62
2022/08/02 08:39:45;;;;;;;;;2.60;2.20;;;;;24.79;54.64;100050.41;5133583;27;8830;-62
2022/08/02 08:42:24;;;;;;;;;4.20;3.00;;;;;24.89;54.38;100039.91;5132765;27;8845;-61
2022/08/02 08:44:52;;;;;;;;;3.00;3.00;;;;;24.98;54.46;100049.53;5133106;27;8960;-61
2022/08/02 08:47:20;;;;;;;;;3.00;3.00;;;;;25.06;53.56;100050.16;5134084;27;8963;-62
2022/08/02 08:49:48;;;;;;;;;3.00;3.00;;;;;25.10;53.40;100047.84;5134054;27;8853;-62
2022/08/02 08:52:19;;;;;;;;;3.00;3.00;;;;;25.16;53.65;100042.38;5133444;27;8852;-62
2022/08/02 08:54:47;;;;;;;;;5.00;3.00;;;;;25.26;53.42;100050.97;5135548;27;8930;-61
2022/08/02 08:57:16;;;;;;;;;3.80;3.80;;;;;25.32;53.26;100049.31;5135536;27;8845;-61
2022/08/02 08:59:44;;;;;;;;;2.40;2.40;;;;;25.45;53.01;100038.34;5135619;27;8833;-61
2022/08/02 09:02:12;;;;;;;;;3.00;2.40;;;;;25.60;52.68;100045.22;5134416;27;8833;-61
2022/08/02 09:04:48;;;;;;;;;4.60;3.00;;;;;25.71;52.25;100041.78;5133924;27;8826;-61
2022/08/02 09:07:22;;;;;;;;;2.40;2.40;;;;;25.87;52.18;100046.75;5133769;27;8834;-62
2022/08/02 09:09:49;;;;;;;;;6.40;5.80;;;;;25.98;51.93;100046.13;5132346;27;8976;-62
2022/08/02 09:12:18;;;;;;;;;5.00;4.60;;;;;26.07;51.92;100042.06;5133318;27;8925;-61
2022/08/02 09:14:46;;;;;;;;;5.60;4.80;;;;;26.19;51.73;100032.13;5133156;27;8826;-61
2022/08/02 09:17:16;;;;;;;;;5.40;5.00;;;;;26.34;51.08;100028.03;5133230;27;8834;-61
2022/08/02 09:19:44;;;;;;;;;3.40;3.40;;;;;26.47;51.11;100041.59;5134487;27;8905;-61
2022/08/02 09:22:12;;;;;;;;;3.00;2.20;;;;;26.50;50.94;100038.41;5134559;27;8818;-62
2022/08/02 09:24:41;;;;;;;;;5.20;5.00;;;;;26.51;51.24;100036.53;5132611;27;8925;-61
2022/08/02 09:27:09;;;;;;;;;6.00;5.20;;;;;26.62;50.50;100024.91;5132180;27;8833;-61
2022/08/02 09:29:37;;;;;;;;;6.80;6.00;;;;;26.72;49.85;100025.25;5132445;27;8868;-63
2022/08/02 09:32:28;;;;;;;;;6.80;6.40;;;;;26.85;49.68;100017.75;5132204;27;8838;-61
2022/08/02 09:34:56;;;;;;;;;5.20;4.40;;;;;26.94;49.20;100023.78;5132791;27;8898;-62
2022/08/02 09:37:24;;;;;;;;;6.80;6.80;;;;;27.03;49.28;100020.50;5133702;27;8976;-60
2022/08/02 09:39:52;;;;;;;;;7.00;7.00;;;;;27.14;49.41;100028.03;5134895;27;8901;-62
2022/08/02 09:42:25;;;;;;;;;7.00;6.00;;;;;27.26;48.79;100023.50;5134519;27;9737;-62
2022/08/02 09:44:57;;;;;;;;;3.80;3.80;;;;;27.49;48.83;100029.13;5135205;27;8980;-61
2022/08/02 09:47:25;;;;;;;;;7.00;6.60;;;;;27.69;47.61;100024.22;5133667;27;9466;-62
2022/08/02 09:49:53;;;;;;;;;6.60;6.60;;;;;27.92;47.75;100032.56;5133360;27;8822;-62
2022/08/02 09:52:21;;;;;;;;;6.00;6.00;;;;;28.22;46.83;100036.13;5133793;27;8848;-63
2022/08/02 09:55:04;;;;;;;;;6.00;6.00;;;;;28.58;46.50;100024.22;5137618;27;8921;-62
2022/08/02 09:57:36;;;;;;;;;4.00;4.00;;;;;28.92;45.94;100021.53;5138432;27;8864;-62
2022/08/02 10:00:04;;;;;;;;;6.00;6.00;;;;;29.22;45.45;100022.28;5137587;27;8860;-62
2022/08/02 10:02:40;;;;;;;;;5.20;4.60;;;;;29.52;44.76;100033.97;5138807;27;8842;-62
2022/08/02 10:05:10;;;;;;;;;5.80;5.80;;;;;29.79;44.66;100029.59;5137786;27;8887;-62
2022/08/02 10:07:41;;;;;;;;;4.80;4.80;;;;;30.13;44.23;100025.06;5137316;27;8837;-62
2022/08/02 10:10:08;;;;;;;;;4.40;4.00;;;;;30.51;44.10;100017.81;5136451;27;8830;-61
2022/08/02 10:12:37;;;;;;;;;5.00;5.00;;;;;31.05;43.62;100015.13;5136115;27;9549;-62
2022/08/02 10:15:05;;;;;;;;;6.00;6.00;;;;;31.50;41.98;100021.31;5136488;27;9491;-62
2022/08/02 10:17:32;;;;;;;;;6.40;6.40;;;;;31.66;42.58;100025.13;5136120;27;8833;-62
2022/08/02 10:20:00;;;;;;;;;5.60;5.60;;;;;31.49;42.58;100021.59;5136237;27;8856;-62
2022/08/02 10:22:31;;;;;;;;;4.80;4.80;;;;;31.33;43.58;100017.78;5135690;27;8846;-62
2022/08/02 10:24:59;;;;;;;;;7.00;6.00;;;;;31.26;43.34;100014.38;5136596;27;8975;-62
2022/08/02 10:27:27;;;;;;;;;5.20;5.00;;;;;31.51;42.81;100012.00;5136876;27;8825;-62
2022/08/02 10:30:15;;;;;;;;;6.00;6.00;;;;;32.06;41.50;100012.69;5136803;27;8814;-62
2022/08/02 10:32:42;;;;;;;;;6.00;5.20;;;;;32.34;40.74;100006.94;5136693;27;8822;-62
2022/08/02 10:35:10;;;;;;;;;5.80;5.80;;;;;32.45;41.46;100014.22;5136599;27;8988;-61
2022/08/02 10:37:45;;;;;;;;;4.40;4.40;;;;;32.54;40.10;100009.06;5138083;27;8838;-62
2022/08/02 10:40:22;;;;;;;;;5.00;5.00;;;;;32.41;41.05;100010.28;5136706;27;8841;-61
2022/08/02 10:42:50;;;;;;;;;5.40;5.00;;;;;31.91;41.33;100012.50;5133959;27;8821;-62
2022/08/02 10:45:18;;;;;;;;;7.00;7.00;;;;;31.22;41.93;100015.16;5133225;27;8938;-62
2022/08/02 10:47:46;;;;;;;;;6.60;6.40;;;;;30.62;43.04;100019.66;5134859;27;8826;-62
2022/08/02 10:50:19;;;;;;;;;4.00;4.00;;;;;30.42;43.81;100015.72;5134765;27;8880;-62
2022/08/02 10:52:47;;;;;;;;;5.00;5.00;;;;;30.63;42.49;100020.50;5134379;27;8837;-62
2022/08/02 10:55:18;;;;;;;;;5.80;5.00;;;;;31.13;41.71;100005.63;5134169;27;8918;-61
2022/08/02 10:57:49;;;;;;;;;5.20;4.60;;;;;31.65;40.65;100004.97;5134079;27;8841;-62
2022/08/02 11:00:18;;;;;;;;;4.80;4.60;;;;;32.16;40.55;100011.97;5133635;27;8858;-62
2022/08/02 11:02:46;;;;;;;;;5.40;5.00;;;;;32.74;39.84;99992.69;5133522;27;8940;-62
2022/08/02 11:05:19;;;;;;;;;5.60;5.60;;;;;33.16;39.13;100004.59;5133306;27;8848;-62
2022/08/02 11:07:47;;;;;;;;;4.20;4.00;;;;;33.39;38.73;99995.91;5132323;27;8906;-62
2022/08/02 11:10:16;;;;;;;;;5.00;5.00;;;;;33.65;37.42;100001.28;5133216;27;8837;-62
2022/08/02 11:12:44;;;;;;;;;6.00;6.00;;;;;33.73;37.05;99999.91;5134349;27;8822;-61
2022/08/02 11:15:11;;;;;;;;;4.80;4.00;;;;;33.85;36.77;100006.94;5135552;27;8833;-62
2022/08/02 11:17:40;;;;;;;;;5.20;5.00;;;;;33.98;36.82;99987.03;5136367;27;8833;-62
2022/08/02 11:20:07;;;;;;;;;6.00;6.00;;;;;34.17;36.20;99992.88;5134773;27;8837;-62
2022/08/02 11:22:35;;;;;;;;;5.00;5.00;;;;;34.05;36.24;99989.56;5136636;27;8859;-62
2022/08/02 11:25:03;;;;;;;;;5.00;5.00;;;;;34.11;35.64;99986.53;5135542;27;8826;-62
2022/08/02 11:27:31;;;;;;;;;7.20;7.00;;;;;33.55;36.53;99992.13;5135083;27;9611;-62
2022/08/02 11:29:59;;;;;;;;;3.00;2.40;;;;;33.43;36.55;99992.34;5134007;27;8853;-62
2022/08/02 11:32:27;;;;;;;;;6.00;6.00;;;;;33.59;35.73;99990.50;5135380;27;8829;-63
2022/08/02 11:34:57;;;;;;;;;4.60;4.60;;;;;33.76;35.29;99985.59;5135549;27;8849;-63
2022/08/02 11:37:26;;;;;;;;;5.00;5.00;;;;;33.84;35.76;99988.66;5134927;27;8829;-62
2022/08/02 11:39:53;;;;;;;;;6.00;6.00;;;;;34.29;35.11;99980.50;5135956;27;8864;-62
2022/08/02 11:42:21;;;;;;;;;6.00;6.00;;;;;34.75;34.48;99984.13;5135037;27;8876;-63
2022/08/02 11:44:49;;;;;;;;;5.60;5.00;;;;;34.44;35.63;99979.69;5134970;27;9581;-62